Terminal Aerodrome Forecast
Issued by NWS

Home | Current Version | Previous Version | Text Only | Print | Product List | Glossary On
Versions: 1 2 3 4 5 6 7 8 9 10 11 12 13 14 15 16 17 18 19 20 21 22 23 24 25 26
000
FTAK31 PAFA 250311 AAA
TAFAOM
TAF AMD
PAOM 250311Z 2503/2524 12022G33KT 2SM -RASN BR OVC012
     FM250400 11017G23KT 3SM -RASN BR OVC010
     FM251800 12023G29KT 1 1/2SM -SN BR OVC015=

USA.gov is the U.S. government's official web portal to all federal, state and local government web resources and services.